sensor_id;sensor_type;location;lat;lon;timestamp;temperature;humidity
1546;DHT22;766;51.502;9.752;2024-01-30T00:02:23;6.60;99.90
1546;DHT22;766;51.502;9.752;2024-01-30T00:04:51;6.50;99.90
1546;DHT22;766;51.502;9.752;2024-01-30T00:07:19;6.60;99.90
1546;DHT22;766;51.502;9.752;2024-01-30T00:09:47;6.60;99.90
1546;DHT22;766;51.502;9.752;2024-01-30T00:12:17;6.60;99.90
1546;DHT22;766;51.502;9.752;2024-01-30T00:14:45;6.60;99.90
1546;DHT22;766;51.502;9.752;2024-01-30T00:17:15;6.60;99.90
1546;DHT22;766;51.502;9.752;2024-01-30T00:19:49;6.60;99.90
1546;DHT22;766;51.502;9.752;2024-01-30T00:22:18;6.60;99.90
1546;DHT22;766;51.502;9.752;2024-01-30T00:24:46;6.60;99.90
1546;DHT22;766;51.502;9.752;2024-01-30T00:27:14;6.60;99.90
1546;DHT22;766;51.502;9.752;2024-01-30T00:29:44;6.60;99.90
1546;DHT22;766;51.502;9.752;2024-01-30T00:32:12;6.60;99.90
1546;DHT22;766;51.502;9.752;2024-01-30T00:34:41;6.70;99.90
1546;DHT22;766;51.502;9.752;2024-01-30T00:37:10;6.70;99.90
1546;DHT22;766;51.502;9.752;2024-01-30T00:39:38;6.70;99.90
1546;DHT22;766;51.502;9.752;2024-01-30T00:42:07;6.70;99.90
1546;DHT22;766;51.502;9.752;2024-01-30T00:44:35;6.70;99.90
1546;DHT22;766;51.502;9.752;2024-01-30T00:47:05;6.70;99.90
1546;DHT22;766;51.502;9.752;2024-01-30T00:49:33;6.70;99.90
1546;DHT22;766;51.502;9.752;2024-01-30T00:52:02;6.70;99.90
1546;DHT22;766;51.502;9.752;2024-01-30T00:54:31;6.60;99.90
1546;DHT22;766;51.502;9.752;2024-01-30T00:56:59;6.60;99.90
1546;DHT22;766;51.502;9.752;2024-01-30T00:59:27;6.60;99.90
1546;DHT22;766;51.502;9.752;2024-01-30T01:01:55;6.60;99.90
1546;DHT22;766;51.502;9.752;2024-01-30T01:04:25;6.60;99.90
1546;DHT22;766;51.502;9.752;2024-01-30T01:06:53;6.60;99.90
1546;DHT22;766;51.502;9.752;2024-01-30T01:09:22;6.60;99.90
1546;DHT22;766;51.502;9.752;2024-01-30T01:11:50;6.50;99.90
1546;DHT22;766;51.502;9.752;2024-01-30T01:14:18;6.50;99.90
1546;DHT22;766;51.502;9.752;2024-01-30T01:16:46;6.50;99.90
1546;DHT22;766;51.502;9.752;2024-01-30T01:19:18;6.40;99.90
1546;DHT22;766;51.502;9.752;2024-01-30T01:21:48;6.40;99.90
1546;DHT22;766;51.502;9.752;2024-01-30T01:24:16;6.40;99.90
1546;DHT22;766;51.502;9.752;2024-01-30T01:26:44;6.40;99.90
1546;DHT22;766;51.502;9.752;2024-01-30T01:29:12;6.30;99.90
1546;DHT22;766;51.502;9.752;2024-01-30T01:31:40;6.30;99.90
1546;DHT22;766;51.502;9.752;2024-01-30T01:34:11;6.10;99.90
1546;DHT22;766;51.502;9.752;2024-01-30T01:36:39;6.10;99.90
1546;DHT22;766;51.502;9.752;2024-01-30T01:39:09;6.00;99.90
1546;DHT22;766;51.502;9.752;2024-01-30T01:41:37;5.90;99.90
1546;DHT22;766;51.502;9.752;2024-01-30T01:44:05;5.90;99.90
1546;DHT22;766;51.502;9.752;2024-01-30T01:46:34;5.80;99.90
1546;DHT22;766;51.502;9.752;2024-01-30T01:49:04;5.70;99.90
1546;DHT22;766;51.502;9.752;2024-01-30T01:51:35;5.80;99.90
1546;DHT22;766;51.502;9.752;2024-01-30T01:54:04;5.80;99.90
1546;DHT22;766;51.502;9.752;2024-01-30T01:56:34;5.90;99.90
1546;DHT22;766;51.502;9.752;2024-01-30T01:59:05;5.90;99.90
1546;DHT22;766;51.502;9.752;2024-01-30T02:01:34;5.90;99.90
1546;DHT22;766;51.502;9.752;2024-01-30T02:04:04;5.90;99.90
1546;DHT22;766;51.502;9.752;2024-01-30T02:06:33;5.90;99.90
1546;DHT22;766;51.502;9.752;2024-01-30T02:09:02;5.80;99.90
1546;DHT22;766;51.502;9.752;2024-01-30T02:11:32;5.60;99.90
1546;DHT22;766;51.502;9.752;2024-01-30T02:14:04;5.50;99.90
1546;DHT22;766;51.502;9.752;2024-01-30T02:16:32;5.50;99.90
1546;DHT22;766;51.502;9.752;2024-01-30T02:19:00;5.60;99.90
1546;DHT22;766;51.502;9.752;2024-01-30T02:21:30;5.60;99.90
1546;DHT22;766;51.502;9.752;2024-01-30T02:24:00;5.60;99.90
1546;DHT22;766;51.502;9.752;2024-01-30T02:26:29;5.60;99.90
1546;DHT22;766;51.502;9.752;2024-01-30T02:28:57;5.60;99.90
1546;DHT22;766;51.502;9.752;2024-01-30T02:31:25;5.60;99.90
1546;DHT22;766;51.502;9.752;2024-01-30T02:33:57;5.60;99.90
1546;DHT22;766;51.502;9.752;2024-01-30T02:36:25;5.60;99.90
1546;DHT22;766;51.502;9.752;2024-01-30T02:38:54;5.70;99.90
1546;DHT22;766;51.502;9.752;2024-01-30T02:41:23;5.70;99.90
1546;DHT22;766;51.502;9.752;2024-01-30T02:43:54;5.70;99.90
1546;DHT22;766;51.502;9.752;2024-01-30T02:46:22;5.70;99.90
1546;DHT22;766;51.502;9.752;2024-01-30T02:48:50;5.80;99.90
1546;DHT22;766;51.502;9.752;2024-01-30T02:51:18;5.80;99.90
1546;DHT22;766;51.502;9.752;2024-01-30T02:53:47;5.80;99.90
1546;DHT22;766;51.502;9.752;2024-01-30T02:56:16;5.80;99.90
1546;DHT22;766;51.502;9.752;2024-01-30T02:58:44;5.80;99.90
1546;DHT22;766;51.502;9.752;2024-01-30T03:01:12;5.80;99.90
1546;DHT22;766;51.502;9.752;2024-01-30T03:03:40;5.80;99.90
1546;DHT22;766;51.502;9.752;2024-01-30T03:06:10;5.80;99.90
1546;DHT22;766;51.502;9.752;2024-01-30T03:08:39;5.80;99.90
1546;DHT22;766;51.502;9.752;2024-01-30T03:11:07;5.80;99.90
1546;DHT22;766;51.502;9.752;2024-01-30T03:13:37;5.70;99.90
1546;DHT22;766;51.502;9.752;2024-01-30T03:16:09;5.70;99.90
1546;DHT22;766;51.502;9.752;2024-01-30T03:18:37;5.70;99.90
1546;DHT22;766;51.502;9.752;2024-01-30T03:21:05;5.70;99.90
1546;DHT22;766;51.502;9.752;2024-01-30T03:23:33;5.70;99.90
1546;DHT22;766;51.502;9.752;2024-01-30T03:26:02;5.70;99.90
1546;DHT22;766;51.502;9.752;2024-01-30T03:28:33;5.70;99.90
1546;DHT22;766;51.502;9.752;2024-01-30T03:31:03;5.70;99.90
1546;DHT22;766;51.502;9.752;2024-01-30T03:33:31;5.70;99.90
1546;DHT22;766;51.502;9.752;2024-01-30T03:36:03;5.70;99.90
1546;DHT22;766;51.502;9.752;2024-01-30T03:38:31;5.70;99.90
1546;DHT22;766;51.502;9.752;2024-01-30T03:41:00;5.70;99.90
1546;DHT22;766;51.502;9.752;2024-01-30T03:43:28;5.70;99.90
1546;DHT22;766;51.502;9.752;2024-01-30T03:45:56;5.80;99.90
1546;DHT22;766;51.502;9.752;2024-01-30T03:48:26;5.80;99.90
1546;DHT22;766;51.502;9.752;2024-01-30T03:50:54;5.80;99.90
1546;DHT22;766;51.502;9.752;2024-01-30T03:53:22;5.80;99.90
1546;DHT22;766;51.502;9.752;2024-01-30T03:55:50;5.80;99.90
1546;DHT22;766;51.502;9.752;2024-01-30T03:58:18;5.90;99.90
1546;DHT22;766;51.502;9.752;2024-01-30T04:00:47;6.00;99.90
1546;DHT22;766;51.502;9.752;2024-01-30T04:03:15;6.10;99.90
1546;DHT22;766;51.502;9.752;2024-01-30T04:05:45;6.10;99.90
1546;DHT22;766;51.502;9.752;2024-01-30T04:08:13;6.10;99.90
1546;DHT22;766;51.502;9.752;2024-01-30T04:10:41;6.00;99.90
1546;DHT22;766;51.502;9.752;2024-01-30T04:13:09;6.10;99.90
1546;DHT22;766;51.502;9.752;2024-01-30T04:15:38;6.10;99.90
1546;DHT22;766;51.502;9.752;2024-01-30T04:18:06;6.10;99.90
1546;DHT22;766;51.502;9.752;2024-01-30T04:20:35;6.10;99.90
1546;DHT22;766;51.502;9.752;2024-01-30T04:23:05;6.10;99.90
1546;DHT22;766;51.502;9.752;2024-01-30T04:25:34;6.20;99.90
1546;DHT22;766;51.502;9.752;2024-01-30T04:28:02;6.20;99.90
1546;DHT22;766;51.502;9.752;2024-01-30T04:30:31;6.10;99.90
1546;DHT22;766;51.502;9.752;2024-01-30T04:32:59;6.10;99.90
1546;DHT22;766;51.502;9.752;2024-01-30T04:35:28;6.10;99.90
1546;DHT22;766;51.502;9.752;2024-01-30T04:37:56;6.10;99.90
1546;DHT22;766;51.502;9.752;2024-01-30T04:40:25;6.10;99.90
1546;DHT22;766;51.502;9.752;2024-01-30T04:42:54;6.10;99.90
1546;DHT22;766;51.502;9.752;2024-01-30T04:45:22;6.10;99.90
1546;DHT22;766;51.502;9.752;2024-01-30T04:47:50;6.00;99.90
1546;DHT22;766;51.502;9.752;2024-01-30T04:50:18;6.00;99.90
1546;DHT22;766;51.502;9.752;2024-01-30T04:52:50;6.00;99.90
1546;DHT22;766;51.502;9.752;2024-01-30T04:55:18;6.00;99.90
1546;DHT22;766;51.502;9.752;2024-01-30T04:57:50;6.00;99.90
1546;DHT22;766;51.502;9.752;2024-01-30T05:00:19;6.00;99.90
1546;DHT22;766;51.502;9.752;2024-01-30T05:02:47;5.90;99.90
1546;DHT22;766;51.502;9.752;2024-01-30T05:05:15;5.90;99.90
1546;DHT22;766;51.502;9.752;2024-01-30T05:07:43;5.90;99.90
1546;DHT22;766;51.502;9.752;2024-01-30T05:10:11;5.90;99.90
1546;DHT22;766;51.502;9.752;2024-01-30T05:12:40;5.90;99.90
1546;DHT22;766;51.502;9.752;2024-01-30T05:15:10;5.90;99.90
1546;DHT22;766;51.502;9.752;2024-01-30T05:17:38;5.90;99.90
1546;DHT22;766;51.502;9.752;2024-01-30T05:20:07;5.90;99.90
1546;DHT22;766;51.502;9.752;2024-01-30T05:22:37;5.90;99.90
1546;DHT22;766;51.502;9.752;2024-01-30T05:25:12;5.90;99.90
1546;DHT22;766;51.502;9.752;2024-01-30T05:27:41;5.90;99.90
1546;DHT22;766;51.502;9.752;2024-01-30T05:30:11;5.90;99.90
1546;DHT22;766;51.502;9.752;2024-01-30T05:32:40;5.90;99.90
1546;DHT22;766;51.502;9.752;2024-01-30T05:35:08;5.90;99.90
1546;DHT22;766;51.502;9.752;2024-01-30T05:37:36;5.90;99.90
1546;DHT22;766;51.502;9.752;2024-01-30T05:40:08;5.90;99.90
1546;DHT22;766;51.502;9.752;2024-01-30T05:42:37;5.80;99.90
1546;DHT22;766;51.502;9.752;2024-01-30T05:45:05;5.90;99.90
1546;DHT22;766;51.502;9.752;2024-01-30T05:47:36;5.80;99.90
1546;DHT22;766;51.502;9.752;2024-01-30T05:50:05;5.80;99.90
1546;DHT22;766;51.502;9.752;2024-01-30T05:52:33;5.80;99.90
1546;DHT22;766;51.502;9.752;2024-01-30T05:55:02;5.70;99.90
1546;DHT22;766;51.502;9.752;2024-01-30T05:57:31;5.70;99.90
1546;DHT22;766;51.502;9.752;2024-01-30T05:59:59;5.70;99.90
1546;DHT22;766;51.502;9.752;2024-01-30T06:02:27;5.60;99.90
1546;DHT22;766;51.502;9.752;2024-01-30T06:04:56;5.50;99.90
1546;DHT22;766;51.502;9.752;2024-01-30T06:07:24;5.50;99.90
1546;DHT22;766;51.502;9.752;2024-01-30T06:09:53;5.50;99.90
1546;DHT22;766;51.502;9.752;2024-01-30T06:12:21;5.50;99.90
1546;DHT22;766;51.502;9.752;2024-01-30T06:14:49;5.50;99.90
1546;DHT22;766;51.502;9.752;2024-01-30T06:17:17;5.40;99.90
1546;DHT22;766;51.502;9.752;2024-01-30T06:19:45;5.40;99.90
1546;DHT22;766;51.502;9.752;2024-01-30T06:22:16;5.30;99.90
1546;DHT22;766;51.502;9.752;2024-01-30T06:24:44;5.30;99.90
1546;DHT22;766;51.502;9.752;2024-01-30T06:27:15;5.30;99.90
1546;DHT22;766;51.502;9.752;2024-01-30T06:29:44;5.30;99.90
1546;DHT22;766;51.502;9.752;2024-01-30T06:32:12;5.30;99.90
1546;DHT22;766;51.502;9.752;2024-01-30T06:34:41;5.30;99.90
1546;DHT22;766;51.502;9.752;2024-01-30T06:37:11;5.30;99.90
1546;DHT22;766;51.502;9.752;2024-01-30T06:39:43;5.30;99.90
1546;DHT22;766;51.502;9.752;2024-01-30T06:42:11;5.30;99.90
1546;DHT22;766;51.502;9.752;2024-01-30T06:44:39;5.30;99.90
1546;DHT22;766;51.502;9.752;2024-01-30T06:47:07;5.30;99.90
1546;DHT22;766;51.502;9.752;2024-01-30T06:49:35;5.30;99.90
1546;DHT22;766;51.502;9.752;2024-01-30T06:52:05;5.30;99.90
1546;DHT22;766;51.502;9.752;2024-01-30T06:54:34;5.30;99.90
1546;DHT22;766;51.502;9.752;2024-01-30T06:57:04;5.20;99.90
1546;DHT22;766;51.502;9.752;2024-01-30T06:59:35;5.30;99.90
1546;DHT22;766;51.502;9.752;2024-01-30T07:02:04;5.30;99.90
1546;DHT22;766;51.502;9.752;2024-01-30T07:04:32;5.30;99.90
1546;DHT22;766;51.502;9.752;2024-01-30T07:07:00;5.20;99.90
1546;DHT22;766;51.502;9.752;2024-01-30T07:09:32;5.20;99.90
1546;DHT22;766;51.502;9.752;2024-01-30T07:12:01;5.20;99.90
1546;DHT22;766;51.502;9.752;2024-01-30T07:14:30;5.10;99.90
1546;DHT22;766;51.502;9.752;2024-01-30T07:16:58;5.10;99.90
1546;DHT22;766;51.502;9.752;2024-01-30T07:19:26;5.10;99.90
1546;DHT22;766;51.502;9.752;2024-01-30T07:21:58;5.20;99.90
1546;DHT22;766;51.502;9.752;2024-01-30T07:24:26;5.20;99.90
1546;DHT22;766;51.502;9.752;2024-01-30T07:26:54;5.20;99.90
1546;DHT22;766;51.502;9.752;2024-01-30T07:29:22;5.20;99.90
1546;DHT22;766;51.502;9.752;2024-01-30T07:31:52;5.30;99.90
1546;DHT22;766;51.502;9.752;2024-01-30T07:34:20;5.30;99.90
1546;DHT22;766;51.502;9.752;2024-01-30T07:36:48;5.40;99.90
1546;DHT22;766;51.502;9.752;2024-01-30T07:39:20;5.40;99.90
1546;DHT22;766;51.502;9.752;2024-01-30T07:41:48;5.40;99.90
1546;DHT22;766;51.502;9.752;2024-01-30T07:44:16;5.40;99.90
1546;DHT22;766;51.502;9.752;2024-01-30T07:46:44;5.40;99.90
1546;DHT22;766;51.502;9.752;2024-01-30T07:49:13;5.40;99.90
1546;DHT22;766;51.502;9.752;2024-01-30T07:51:45;5.40;99.90
1546;DHT22;766;51.502;9.752;2024-01-30T07:54:13;5.40;99.90
1546;DHT22;766;51.502;9.752;2024-01-30T07:56:41;5.50;99.90
1546;DHT22;766;51.502;9.752;2024-01-30T07:59:10;5.50;99.90
1546;DHT22;766;51.502;9.752;2024-01-30T08:01:38;5.50;99.90
1546;DHT22;766;51.502;9.752;2024-01-30T08:04:09;5.50;99.90
1546;DHT22;766;51.502;9.752;2024-01-30T08:06:39;5.50;99.90
1546;DHT22;766;51.502;9.752;2024-01-30T08:09:10;5.50;99.90
1546;DHT22;766;51.502;9.752;2024-01-30T08:11:38;5.60;99.90
1546;DHT22;766;51.502;9.752;2024-01-30T08:14:06;5.60;99.90
1546;DHT22;766;51.502;9.752;2024-01-30T08:16:34;5.60;99.90
1546;DHT22;766;51.502;9.752;2024-01-30T08:19:03;5.60;99.90
1546;DHT22;766;51.502;9.752;2024-01-30T08:21:31;5.60;99.90
1546;DHT22;766;51.502;9.752;2024-01-30T08:24:07;5.60;99.90
1546;DHT22;766;51.502;9.752;2024-01-30T08:26:36;5.60;99.90
1546;DHT22;766;51.502;9.752;2024-01-30T08:29:05;5.60;99.90
1546;DHT22;766;51.502;9.752;2024-01-30T08:31:34;5.60;99.90
1546;DHT22;766;51.502;9.752;2024-01-30T08:34:02;5.60;99.90
1546;DHT22;766;51.502;9.752;2024-01-30T08:36:30;5.60;99.90
1546;DHT22;766;51.502;9.752;2024-01-30T08:39:01;5.70;99.90
1546;DHT22;766;51.502;9.752;2024-01-30T08:41:33;5.60;99.90
1546;DHT22;766;51.502;9.752;2024-01-30T08:44:01;5.70;99.90
1546;DHT22;766;51.502;9.752;2024-01-30T08:46:31;5.70;99.90
1546;DHT22;766;51.502;9.752;2024-01-30T08:48:59;5.70;99.90
1546;DHT22;766;51.502;9.752;2024-01-30T08:51:27;5.80;99.90
1546;DHT22;766;51.502;9.752;2024-01-30T08:53:56;5.80;99.90
1546;DHT22;766;51.502;9.752;2024-01-30T08:56:24;5.80;99.90
1546;DHT22;766;51.502;9.752;2024-01-30T08:58:53;5.80;99.90
1546;DHT22;766;51.502;9.752;2024-01-30T09:01:22;5.80;99.90
1546;DHT22;766;51.502;9.752;2024-01-30T09:03:50;5.80;99.90
1546;DHT22;766;51.502;9.752;2024-01-30T09:06:18;5.90;99.90
1546;DHT22;766;51.502;9.752;2024-01-30T09:08:46;5.90;99.90
1546;DHT22;766;51.502;9.752;2024-01-30T09:11:15;5.90;99.90
1546;DHT22;766;51.502;9.752;2024-01-30T09:13:43;5.90;99.90
1546;DHT22;766;51.502;9.752;2024-01-30T09:16:13;5.90;99.90
1546;DHT22;766;51.502;9.752;2024-01-30T09:18:42;6.00;99.90
1546;DHT22;766;51.502;9.752;2024-01-30T09:21:11;6.00;99.90
1546;DHT22;766;51.502;9.752;2024-01-30T09:23:39;6.00;99.90
1546;DHT22;766;51.502;9.752;2024-01-30T09:26:07;6.00;99.90
1546;DHT22;766;51.502;9.752;2024-01-30T09:28:36;6.00;99.90
1546;DHT22;766;51.502;9.752;2024-01-30T09:31:09;6.10;99.90
1546;DHT22;766;51.502;9.752;2024-01-30T09:33:38;6.10;99.90
1546;DHT22;766;51.502;9.752;2024-01-30T09:36:10;6.10;99.90
1546;DHT22;766;51.502;9.752;2024-01-30T09:38:38;6.20;99.90
1546;DHT22;766;51.502;9.752;2024-01-30T09:41:09;6.20;99.90
1546;DHT22;766;51.502;9.752;2024-01-30T09:43:38;6.10;99.90
1546;DHT22;766;51.502;9.752;2024-01-30T09:46:09;6.20;99.90
1546;DHT22;766;51.502;9.752;2024-01-30T09:48:41;6.20;99.90
1546;DHT22;766;51.502;9.752;2024-01-30T09:51:09;6.30;99.90
1546;DHT22;766;51.502;9.752;2024-01-30T09:53:39;6.30;99.90
1546;DHT22;766;51.502;9.752;2024-01-30T09:56:12;6.30;99.90
1546;DHT22;766;51.502;9.752;2024-01-30T09:58:40;6.40;99.90
1546;DHT22;766;51.502;9.752;2024-01-30T10:01:10;6.40;99.90
1546;DHT22;766;51.502;9.752;2024-01-30T10:03:38;6.50;99.90
1546;DHT22;766;51.502;9.752;2024-01-30T10:06:08;6.60;99.90
1546;DHT22;766;51.502;9.752;2024-01-30T10:08:37;6.50;99.90
1546;DHT22;766;51.502;9.752;2024-01-30T10:11:05;6.50;99.90
1546;DHT22;766;51.502;9.752;2024-01-30T10:13:33;6.50;99.90
1546;DHT22;766;51.502;9.752;2024-01-30T10:16:02;6.50;99.90
1546;DHT22;766;51.502;9.752;2024-01-30T10:18:32;6.60;99.90
1546;DHT22;766;51.502;9.752;2024-01-30T10:21:01;6.50;99.90
1546;DHT22;766;51.502;9.752;2024-01-30T10:23:31;6.60;99.90
1546;DHT22;766;51.502;9.752;2024-01-30T10:26:02;6.70;99.90
1546;DHT22;766;51.502;9.752;2024-01-30T10:28:31;6.70;99.90
1546;DHT22;766;51.502;9.752;2024-01-30T10:31:00;6.70;99.90
1546;DHT22;766;51.502;9.752;2024-01-30T10:33:32;6.80;99.90
1546;DHT22;766;51.502;9.752;2024-01-30T10:36:02;6.70;99.90
1546;DHT22;766;51.502;9.752;2024-01-30T10:38:33;6.80;99.90
1546;DHT22;766;51.502;9.752;2024-01-30T10:41:01;6.80;99.90
1546;DHT22;766;51.502;9.752;2024-01-30T10:43:32;6.80;99.90
1546;DHT22;766;51.502;9.752;2024-01-30T10:46:10;6.90;99.90
1546;DHT22;766;51.502;9.752;2024-01-30T10:48:42;6.90;99.90
1546;DHT22;766;51.502;9.752;2024-01-30T10:51:15;7.00;99.90
1546;DHT22;766;51.502;9.752;2024-01-30T10:53:46;7.00;99.90
1546;DHT22;766;51.502;9.752;2024-01-30T10:56:21;7.10;99.90
1546;DHT22;766;51.502;9.752;2024-01-30T10:58:50;7.10;99.90
1546;DHT22;766;51.502;9.752;2024-01-30T11:01:19;7.20;99.90
1546;DHT22;766;51.502;9.752;2024-01-30T11:03:51;7.30;99.90
1546;DHT22;766;51.502;9.752;2024-01-30T11:06:22;7.40;99.90
1546;DHT22;766;51.502;9.752;2024-01-30T11:09:02;7.50;99.90
1546;DHT22;766;51.502;9.752;2024-01-30T11:11:48;7.50;99.90
1546;DHT22;766;51.502;9.752;2024-01-30T11:14:16;7.70;99.90
1546;DHT22;766;51.502;9.752;2024-01-30T11:16:45;7.90;99.90
1546;DHT22;766;51.502;9.752;2024-01-30T11:19:15;7.90;99.90
1546;DHT22;766;51.502;9.752;2024-01-30T11:21:43;7.90;99.90
1546;DHT22;766;51.502;9.752;2024-01-30T11:24:14;7.90;99.90
1546;DHT22;766;51.502;9.752;2024-01-30T11:26:42;7.90;99.90
1546;DHT22;766;51.502;9.752;2024-01-30T11:29:13;7.90;99.90
1546;DHT22;766;51.502;9.752;2024-01-30T11:31:51;7.90;99.90
1546;DHT22;766;51.502;9.752;2024-01-30T11:34:20;7.90;99.90
1546;DHT22;766;51.502;9.752;2024-01-30T11:36:53;7.90;99.90
1546;DHT22;766;51.502;9.752;2024-01-30T11:39:28;7.90;99.90
1546;DHT22;766;51.502;9.752;2024-01-30T11:41:57;7.80;99.90
1546;DHT22;766;51.502;9.752;2024-01-30T11:44:26;7.80;99.90
1546;DHT22;766;51.502;9.752;2024-01-30T11:46:54;7.80;99.90
1546;DHT22;766;51.502;9.752;2024-01-30T11:49:23;7.80;99.90
1546;DHT22;766;51.502;9.752;2024-01-30T11:51:52;7.80;99.90
1546;DHT22;766;51.502;9.752;2024-01-30T11:54:21;7.70;99.90
1546;DHT22;766;51.502;9.752;2024-01-30T11:56:50;7.70;99.90
1546;DHT22;766;51.502;9.752;2024-01-30T11:59:19;7.70;99.90
1546;DHT22;766;51.502;9.752;2024-01-30T12:01:47;7.70;99.90
1546;DHT22;766;51.502;9.752;2024-01-30T12:04:16;7.80;99.90
1546;DHT22;766;51.502;9.752;2024-01-30T12:06:44;7.80;99.90
1546;DHT22;766;51.502;9.752;2024-01-30T12:09:12;7.90;99.90
1546;DHT22;766;51.502;9.752;2024-01-30T12:11:44;7.90;99.90
1546;DHT22;766;51.502;9.752;2024-01-30T12:14:14;7.90;99.90
1546;DHT22;766;51.502;9.752;2024-01-30T12:16:43;7.90;99.90
1546;DHT22;766;51.502;9.752;2024-01-30T12:19:11;7.90;99.90
1546;DHT22;766;51.502;9.752;2024-01-30T12:21:55;7.90;99.90
1546;DHT22;766;51.502;9.752;2024-01-30T12:24:26;7.90;99.90
1546;DHT22;766;51.502;9.752;2024-01-30T12:26:57;8.00;99.90
1546;DHT22;766;51.502;9.752;2024-01-30T12:29:26;8.00;99.90
1546;DHT22;766;51.502;9.752;2024-01-30T12:32:01;8.20;99.90
1546;DHT22;766;51.502;9.752;2024-01-30T12:34:29;8.20;99.90
1546;DHT22;766;51.502;9.752;2024-01-30T12:37:04;8.30;99.90
1546;DHT22;766;51.502;9.752;2024-01-30T12:39:35;8.30;99.90
1546;DHT22;766;51.502;9.752;2024-01-30T12:42:04;8.30;99.90
1546;DHT22;766;51.502;9.752;2024-01-30T12:44:34;8.30;99.90
1546;DHT22;766;51.502;9.752;2024-01-30T12:47:03;8.50;99.90
1546;DHT22;766;51.502;9.752;2024-01-30T12:49:31;8.50;99.90
1546;DHT22;766;51.502;9.752;2024-01-30T12:51:59;8.50;99.90
1546;DHT22;766;51.502;9.752;2024-01-30T12:54:28;8.50;99.90
1546;DHT22;766;51.502;9.752;2024-01-30T12:56:56;8.50;99.90
1546;DHT22;766;51.502;9.752;2024-01-30T12:59:24;8.40;99.90
1546;DHT22;766;51.502;9.752;2024-01-30T13:01:54;8.40;99.90
1546;DHT22;766;51.502;9.752;2024-01-30T13:04:22;8.50;99.90
1546;DHT22;766;51.502;9.752;2024-01-30T13:06:51;8.50;99.90
1546;DHT22;766;51.502;9.752;2024-01-30T13:09:19;8.50;99.90
1546;DHT22;766;51.502;9.752;2024-01-30T13:11:48;8.50;99.90
1546;DHT22;766;51.502;9.752;2024-01-30T13:14:17;8.50;99.90
1546;DHT22;766;51.502;9.752;2024-01-30T13:16:45;8.40;99.90
1546;DHT22;766;51.502;9.752;2024-01-30T13:19:17;8.50;99.90
1546;DHT22;766;51.502;9.752;2024-01-30T13:21:45;8.40;99.90
1546;DHT22;766;51.502;9.752;2024-01-30T13:24:14;8.50;99.90
1546;DHT22;766;51.502;9.752;2024-01-30T13:26:45;8.50;99.90
1546;DHT22;766;51.502;9.752;2024-01-30T13:29:14;8.40;99.90
1546;DHT22;766;51.502;9.752;2024-01-30T13:31:42;8.50;99.90
1546;DHT22;766;51.502;9.752;2024-01-30T13:34:11;8.60;99.90
1546;DHT22;766;51.502;9.752;2024-01-30T13:36:42;8.60;99.90
1546;DHT22;766;51.502;9.752;2024-01-30T13:39:10;8.60;99.90
1546;DHT22;766;51.502;9.752;2024-01-30T13:41:40;8.60;99.90
1546;DHT22;766;51.502;9.752;2024-01-30T13:44:09;8.70;99.90
1546;DHT22;766;51.502;9.752;2024-01-30T13:46:37;8.70;99.90
1546;DHT22;766;51.502;9.752;2024-01-30T13:49:05;8.80;99.90
1546;DHT22;766;51.502;9.752;2024-01-30T13:51:34;8.90;99.90
1546;DHT22;766;51.502;9.752;2024-01-30T13:54:04;8.90;99.90
1546;DHT22;766;51.502;9.752;2024-01-30T13:56:32;8.90;99.90
1546;DHT22;766;51.502;9.752;2024-01-30T13:59:00;8.90;99.90
1546;DHT22;766;51.502;9.752;2024-01-30T14:01:32;8.90;99.90
1546;DHT22;766;51.502;9.752;2024-01-30T14:04:02;8.90;99.90
1546;DHT22;766;51.502;9.752;2024-01-30T14:06:32;8.90;99.90
1546;DHT22;766;51.502;9.752;2024-01-30T14:09:01;8.90;99.90
1546;DHT22;766;51.502;9.752;2024-01-30T14:11:36;8.80;99.90
1546;DHT22;766;51.502;9.752;2024-01-30T14:14:04;8.70;99.90
1546;DHT22;766;51.502;9.752;2024-01-30T14:16:32;8.60;99.90
1546;DHT22;766;51.502;9.752;2024-01-30T14:19:00;8.50;99.90
1546;DHT22;766;51.502;9.752;2024-01-30T14:21:29;8.40;99.90
1546;DHT22;766;51.502;9.752;2024-01-30T14:23:57;8.40;99.90
1546;DHT22;766;51.502;9.752;2024-01-30T14:26:25;8.40;99.90
1546;DHT22;766;51.502;9.752;2024-01-30T14:28:58;8.50;99.90
1546;DHT22;766;51.502;9.752;2024-01-30T14:31:26;8.40;99.90
1546;DHT22;766;51.502;9.752;2024-01-30T14:33:54;8.40;99.90
1546;DHT22;766;51.502;9.752;2024-01-30T14:36:23;8.40;99.90
1546;DHT22;766;51.502;9.752;2024-01-30T14:38:54;8.40;99.90
1546;DHT22;766;51.502;9.752;2024-01-30T14:41:23;8.40;99.90
1546;DHT22;766;51.502;9.752;2024-01-30T14:43:51;8.40;99.90
1546;DHT22;766;51.502;9.752;2024-01-30T14:46:21;8.40;99.90
1546;DHT22;766;51.502;9.752;2024-01-30T14:48:50;8.40;99.90
1546;DHT22;766;51.502;9.752;2024-01-30T14:51:19;8.40;99.90
1546;DHT22;766;51.502;9.752;2024-01-30T14:53:47;8.50;99.90
1546;DHT22;766;51.502;9.752;2024-01-30T14:56:15;8.50;99.90
1546;DHT22;766;51.502;9.752;2024-01-30T14:58:47;8.40;99.90
1546;DHT22;766;51.502;9.752;2024-01-30T15:01:16;8.50;99.90
1546;DHT22;766;51.502;9.752;2024-01-30T15:03:46;8.50;99.90
1546;DHT22;766;51.502;9.752;2024-01-30T15:06:15;8.60;99.90
1546;DHT22;766;51.502;9.752;2024-01-30T15:08:43;8.50;99.90
1546;DHT22;766;51.502;9.752;2024-01-30T15:11:11;8.50;99.90
1546;DHT22;766;51.502;9.752;2024-01-30T15:13:40;8.50;99.90
1546;DHT22;766;51.502;9.752;2024-01-30T15:16:08;8.50;99.90
1546;DHT22;766;51.502;9.752;2024-01-30T15:18:36;8.40;99.90
1546;DHT22;766;51.502;9.752;2024-01-30T15:21:06;8.40;99.90
1546;DHT22;766;51.502;9.752;2024-01-30T15:23:34;8.30;99.90
1546;DHT22;766;51.502;9.752;2024-01-30T15:26:03;8.30;99.90
1546;DHT22;766;51.502;9.752;2024-01-30T15:28:35;8.30;99.90
1546;DHT22;766;51.502;9.752;2024-01-30T15:31:05;8.30;99.90
1546;DHT22;766;51.502;9.752;2024-01-30T15:33:34;8.30;99.90
1546;DHT22;766;51.502;9.752;2024-01-30T15:36:03;8.20;99.90
1546;DHT22;766;51.502;9.752;2024-01-30T15:38:33;8.20;99.90
1546;DHT22;766;51.502;9.752;2024-01-30T15:41:01;8.20;99.90
1546;DHT22;766;51.502;9.752;2024-01-30T15:43:29;8.20;99.90
1546;DHT22;766;51.502;9.752;2024-01-30T15:45:59;8.20;99.90
1546;DHT22;766;51.502;9.752;2024-01-30T15:48:28;8.10;99.90
1546;DHT22;766;51.502;9.752;2024-01-30T15:50:56;8.10;99.90
1546;DHT22;766;51.502;9.752;2024-01-30T15:53:25;8.00;99.90
1546;DHT22;766;51.502;9.752;2024-01-30T15:55:55;8.00;99.90
1546;DHT22;766;51.502;9.752;2024-01-30T15:58:23;8.00;99.90
1546;DHT22;766;51.502;9.752;2024-01-30T16:00:51;8.00;99.90
1546;DHT22;766;51.502;9.752;2024-01-30T16:03:23;8.00;99.90
1546;DHT22;766;51.502;9.752;2024-01-30T16:05:53;8.00;99.90
1546;DHT22;766;51.502;9.752;2024-01-30T16:08:24;8.00;99.90
1546;DHT22;766;51.502;9.752;2024-01-30T16:10:52;8.00;99.90
1546;DHT22;766;51.502;9.752;2024-01-30T16:13:22;8.00;99.90
1546;DHT22;766;51.502;9.752;2024-01-30T16:15:50;8.00;99.90
1546;DHT22;766;51.502;9.752;2024-01-30T16:18:18;7.90;99.90
1546;DHT22;766;51.502;9.752;2024-01-30T16:20:47;7.90;99.90
1546;DHT22;766;51.502;9.752;2024-01-30T16:23:15;7.90;99.90
1546;DHT22;766;51.502;9.752;2024-01-30T16:25:43;7.80;99.90
1546;DHT22;766;51.502;9.752;2024-01-30T16:28:12;7.80;99.90
1546;DHT22;766;51.502;9.752;2024-01-30T16:30:41;7.80;99.90
1546;DHT22;766;51.502;9.752;2024-01-30T16:33:11;7.80;99.90
1546;DHT22;766;51.502;9.752;2024-01-30T16:35:39;7.80;99.90
1546;DHT22;766;51.502;9.752;2024-01-30T16:38:13;7.80;99.90
1546;DHT22;766;51.502;9.752;2024-01-30T16:40:41;7.70;99.90
1546;DHT22;766;51.502;9.752;2024-01-30T16:43:11;7.70;99.90
1546;DHT22;766;51.502;9.752;2024-01-30T16:45:41;7.70;99.90
1546;DHT22;766;51.502;9.752;2024-01-30T16:48:09;7.70;99.90